createdAt,value
2023-02-17T00:01:22.636Z,27.50
2023-02-17T00:03:51.519Z,27.57
2023-02-17T00:06:21.160Z,27.53
2023-02-17T00:08:48.254Z,26.97
2023-02-17T00:11:15.118Z,26.50
2023-02-17T00:13:42.420Z,26.40
2023-02-17T00:16:11.289Z,26.80
2023-02-17T00:18:37.782Z,26.07
2023-02-17T00:21:12.733Z,26.30
2023-02-17T00:23:39.145Z,25.97
2023-02-17T00:26:06.989Z,27.67
2023-02-17T00:28:34.364Z,25.93
2023-02-17T00:31:16.114Z,26.20
2023-02-17T00:33:42.794Z,26.83
2023-02-17T00:36:12.858Z,26.97
2023-02-17T00:38:39.605Z,26.80
2023-02-17T00:41:06.077Z,26.70
2023-02-17T00:43:32.550Z,27.63
2023-02-17T00:45:59.064Z,26.73
2023-02-17T00:48:25.814Z,27.33
2023-02-17T00:50:52.298Z,27.20
2023-02-17T00:53:18.971Z,27.30
2023-02-17T00:55:45.516Z,27.37
2023-02-17T00:58:12.198Z,26.63
2023-02-17T01:00:38.711Z,27.93
2023-02-17T01:03:05.147Z,28.10
2023-02-17T01:05:31.880Z,28.47
2023-02-17T01:07:58.393Z,26.20
2023-02-17T01:10:24.851Z,26.03
2023-02-17T01:12:51.672Z,27.13
2023-02-17T01:15:21.296Z,26.87
2023-02-17T01:17:49.612Z,27.13
2023-02-17T01:20:16.253Z,28.00
2023-02-17T01:22:42.697Z,28.83
2023-02-17T01:25:09.143Z,27.30
2023-02-17T01:27:35.978Z,28.00
2023-02-17T01:30:02.581Z,28.37
2023-02-17T01:32:29.383Z,28.67
2023-02-17T01:34:55.980Z,27.93
2023-02-17T01:37:22.555Z,27.97
2023-02-17T01:39:49.401Z,28.23
2023-02-17T01:42:17.626Z,27.97
2023-02-17T01:45:18.356Z,28.00
2023-02-17T01:47:56.374Z,28.23
2023-02-17T01:50:28.219Z,28.43
2023-02-17T01:52:58.076Z,27.97
2023-02-17T01:55:25.953Z,28.07
2023-02-17T01:57:57.509Z,28.27
2023-02-17T02:00:27.801Z,28.80
2023-02-17T02:02:54.870Z,28.60
2023-02-17T02:05:22.039Z,29.10
2023-02-17T02:07:50.350Z,28.87
2023-02-17T02:10:19.619Z,28.93
2023-02-17T02:12:46.412Z,28.37
2023-02-17T02:15:16.236Z,29.00
2023-02-17T02:17:52.456Z,28.67
2023-02-17T02:20:26.044Z,27.20
2023-02-17T02:23:07.738Z,28.83
2023-02-17T02:25:40.240Z,29.40
2023-02-17T02:28:28.579Z,30.20
2023-02-17T02:31:29.212Z,29.03
2023-02-17T02:34:07.801Z,28.53
2023-02-17T02:36:58.564Z,28.87
2023-02-17T02:39:32.586Z,29.73
2023-02-17T02:42:04.865Z,28.77
2023-02-17T02:44:31.520Z,29.67
2023-02-17T02:47:26.107Z,29.13
2023-02-17T02:49:53.089Z,28.40
2023-02-17T02:52:29.671Z,28.47
2023-02-17T02:55:06.286Z,28.40
2023-02-17T02:58:02.265Z,28.37
2023-02-17T03:00:53.935Z,26.80
2023-02-17T03:04:07.300Z,28.53
2023-02-17T03:06:44.803Z,26.80
2023-02-17T03:09:14.716Z,27.40
2023-02-17T03:11:41.999Z,27.37
2023-02-17T03:14:14.934Z,27.43
2023-02-17T03:16:42.753Z,27.17
2023-02-17T03:19:10.628Z,26.70
2023-02-17T03:21:44.891Z,26.73
2023-02-17T03:24:11.349Z,26.60
2023-02-17T03:26:37.843Z,27.23
2023-02-17T03:29:04.331Z,27.00
2023-02-17T03:31:31.318Z,27.63
2023-02-17T03:33:58.631Z,27.00
2023-02-17T03:36:25.096Z,26.03
2023-02-17T03:38:51.801Z,25.00
2023-02-17T03:41:18.346Z,25.80
2023-02-17T03:43:44.775Z,25.23
2023-02-17T03:46:12.727Z,26.67
2023-02-17T03:48:40.078Z,25.27
2023-02-17T03:51:13.220Z,26.93
2023-02-17T03:53:40.030Z,25.60
2023-02-17T03:56:06.926Z,25.73
2023-02-17T03:58:34.252Z,26.00
2023-02-17T04:01:01.092Z,25.87
2023-02-17T04:03:27.609Z,26.07
2023-02-17T04:05:54.569Z,25.23
2023-02-17T04:08:22.102Z,26.50
2023-02-17T04:10:56.694Z,24.63
2023-02-17T04:13:24.002Z,24.73
2023-02-17T04:15:51.134Z,25.53
2023-02-17T04:18:18.674Z,25.30
2023-02-17T04:20:47.350Z,24.40
2023-02-17T04:23:14.523Z,25.27
2023-02-17T04:25:41.348Z,23.73
2023-02-17T04:28:10.005Z,23.10
2023-02-17T04:30:36.467Z,23.83
2023-02-17T04:33:03.841Z,23.73
2023-02-17T04:35:30.525Z,23.73
2023-02-17T04:37:56.991Z,24.03
2023-02-17T04:40:23.597Z,24.47
2023-02-17T04:42:50.164Z,23.73
2023-02-17T04:45:16.923Z,22.93
2023-02-17T04:47:43.345Z,23.77
2023-02-17T04:50:10.660Z,23.90
2023-02-17T04:52:37.086Z,23.10
2023-02-17T04:55:04.927Z,22.40
2023-02-17T04:57:31.406Z,22.63
2023-02-17T04:59:57.817Z,22.57
2023-02-17T05:02:26.845Z,21.17
2023-02-17T05:04:54.011Z,23.30
2023-02-17T05:07:21.110Z,24.13
2023-02-17T05:09:47.838Z,23.07
2023-02-17T05:12:14.656Z,22.77
2023-02-17T05:14:41.051Z,22.60
2023-02-17T05:17:07.489Z,22.47
2023-02-17T05:19:34.045Z,23.30
2023-02-17T05:22:00.454Z,22.37
2023-02-17T05:24:27.218Z,22.77
2023-02-17T05:26:53.872Z,23.00
2023-02-17T05:29:20.438Z,23.27
2023-02-17T05:31:47.208Z,22.30
2023-02-17T05:34:13.734Z,21.73
2023-02-17T05:36:40.219Z,23.30
2023-02-17T05:39:06.718Z,22.13
2023-02-17T05:41:33.176Z,23.07
2023-02-17T05:43:59.572Z,22.00
2023-02-17T05:46:26.172Z,22.17
2023-02-17T05:48:52.701Z,21.00
2023-02-17T05:51:19.490Z,21.67
2023-02-17T05:53:46.109Z,22.17
2023-02-17T05:56:12.480Z,23.13
2023-02-17T05:58:38.930Z,22.10
2023-02-17T06:01:09.774Z,21.53
2023-02-17T06:03:36.217Z,21.50
2023-02-17T06:06:02.850Z,22.40
2023-02-17T06:08:29.257Z,21.80
2023-02-17T06:10:56.005Z,21.20
2023-02-17T06:13:22.479Z,21.73
2023-02-17T06:15:49.411Z,21.63
2023-02-17T06:18:16.131Z,21.60
2023-02-17T06:20:42.587Z,21.57
2023-02-17T06:23:08.971Z,22.33
2023-02-17T06:25:35.823Z,21.63
2023-02-17T06:28:02.303Z,21.30
2023-02-17T06:30:28.843Z,22.27
2023-02-17T06:32:55.329Z,23.47
2023-02-17T06:35:22.020Z,23.30
2023-02-17T06:37:48.628Z,23.23
2023-02-17T06:40:15.670Z,23.37
2023-02-17T06:42:42.115Z,22.17
2023-02-17T06:45:09.039Z,22.03
2023-02-17T06:47:35.683Z,21.87
2023-02-17T06:50:04.839Z,20.70
2023-02-17T06:52:32.029Z,20.87
2023-02-17T06:54:58.668Z,19.43
2023-02-17T06:57:25.101Z,19.90
2023-02-17T06:59:51.709Z,20.80
2023-02-17T07:02:18.300Z,20.63
2023-02-17T07:04:44.823Z,20.40
2023-02-17T07:07:11.869Z,19.40
2023-02-17T07:09:39.147Z,20.20
2023-02-17T07:12:06.307Z,19.53
2023-02-17T07:14:34.283Z,20.73
2023-02-17T07:17:01.899Z,20.53
2023-02-17T07:19:28.309Z,22.43
2023-02-17T07:21:54.743Z,22.30
2023-02-17T07:24:21.261Z,22.90
2023-02-17T07:26:48.624Z,21.77
2023-02-17T07:29:15.008Z,21.07
2023-02-17T07:31:41.559Z,21.20
2023-02-17T07:34:08.049Z,20.10
2023-02-17T07:36:34.721Z,20.20
2023-02-17T07:39:04.396Z,21.73
2023-02-17T07:41:33.495Z,23.63
2023-02-17T07:44:07.740Z,23.03
2023-02-17T07:46:34.240Z,24.13
2023-02-17T07:49:00.669Z,24.50
2023-02-17T07:51:27.991Z,23.17
2023-02-17T07:53:55.061Z,22.63
2023-02-17T07:56:22.322Z,22.63
2023-02-17T07:58:49.004Z,22.27
2023-02-17T08:01:18.356Z,22.27
2023-02-17T08:03:46.088Z,22.10
2023-02-17T08:06:18.583Z,22.67
2023-02-17T08:09:04.188Z,23.40
2023-02-17T08:11:50.108Z,24.87
2023-02-17T08:14:16.822Z,24.37
2023-02-17T08:16:43.485Z,25.93
2023-02-17T08:19:10.022Z,26.27
2023-02-17T08:21:36.524Z,25.13
2023-02-17T08:24:03.172Z,26.10
2023-02-17T08:26:29.736Z,25.70
2023-02-17T08:28:56.395Z,25.33
2023-02-17T08:31:26.307Z,25.30
2023-02-17T08:33:53.394Z,25.47
2023-02-17T08:36:22.168Z,25.23
2023-02-17T08:38:51.268Z,25.20
2023-02-17T08:41:17.661Z,24.47
2023-02-17T08:43:44.223Z,24.30
2023-02-17T08:46:11.951Z,23.10
2023-02-17T08:48:40.332Z,23.80
2023-02-17T08:51:07.309Z,22.80
2023-02-17T08:53:34.592Z,23.03
2023-02-17T08:56:01.148Z,22.90
2023-02-17T08:58:27.575Z,22.77
2023-02-17T09:00:54.145Z,21.00
2023-02-17T09:03:21.163Z,21.30
2023-02-17T09:05:49.944Z,20.30
2023-02-17T09:08:16.912Z,19.50
2023-02-17T09:10:43.435Z,20.07
2023-02-17T09:13:09.935Z,19.97
2023-02-17T09:15:36.409Z,19.27
2023-02-17T09:18:02.909Z,18.30
2023-02-17T09:20:29.546Z,18.50
2023-02-17T09:22:56.271Z,19.27
2023-02-17T09:25:22.942Z,19.17
2023-02-17T09:27:49.911Z,19.40
2023-02-17T09:30:16.765Z,19.47
2023-02-17T09:32:44.175Z,19.37
2023-02-17T09:35:15.620Z,19.17
2023-02-17T09:37:42.299Z,19.50
2023-02-17T09:40:15.324Z,19.67
2023-02-17T09:42:41.840Z,20.23
2023-02-17T09:45:19.034Z,19.43
2023-02-17T09:47:54.950Z,21.33
2023-02-17T09:50:44.002Z,20.53
2023-02-17T09:53:34.437Z,21.67
2023-02-17T09:56:05.658Z,23.23
2023-02-17T09:58:50.375Z,21.63
2023-02-17T10:01:23.945Z,22.43
2023-02-17T10:03:56.173Z,23.13
2023-02-17T10:06:28.491Z,22.53
2023-02-17T10:09:32.036Z,23.43
2023-02-17T10:12:21.400Z,22.73
2023-02-17T10:14:56.741Z,23.63
2023-02-17T10:17:37.709Z,23.90
2023-02-17T10:20:12.417Z,25.73
2023-02-17T10:22:42.468Z,24.90
2023-02-17T10:25:46.489Z,25.00
2023-02-17T10:28:38.090Z,25.67
2023-02-17T10:31:15.176Z,25.37
2023-02-17T10:33:53.028Z,26.50
2023-02-17T10:36:28.882Z,26.67
2023-02-17T10:39:11.967Z,26.13
2023-02-17T10:41:40.172Z,26.00
2023-02-17T10:44:19.879Z,25.90
2023-02-17T10:46:48.857Z,27.17
2023-02-17T10:49:32.297Z,24.57
2023-02-17T10:52:10.604Z,24.67
2023-02-17T10:54:49.118Z,24.20
2023-02-17T10:57:19.537Z,23.20
2023-02-17T10:59:48.998Z,22.80
2023-02-17T11:02:37.875Z,24.07
2023-02-17T11:05:04.831Z,20.37
2023-02-17T11:07:45.112Z,20.70
2023-02-17T11:10:22.996Z,20.40
2023-02-17T11:12:55.830Z,19.87
2023-02-17T11:15:27.073Z,19.47
2023-02-17T11:17:54.478Z,20.43
2023-02-17T11:20:21.433Z,19.03
2023-02-17T11:23:02.763Z,17.50
2023-02-17T11:25:34.556Z,17.57
2023-02-17T11:28:03.584Z,17.13
2023-02-17T11:30:32.536Z,15.30
2023-02-17T11:32:59.022Z,16.00
2023-02-17T11:35:46.088Z,14.20
2023-02-17T11:38:18.945Z,15.57
2023-02-17T11:40:59.601Z,13.73
2023-02-17T11:43:30.570Z,14.30
2023-02-17T11:46:38.714Z,14.63
2023-02-17T11:49:33.885Z,13.57
2023-02-17T11:52:19.077Z,14.17
2023-02-17T11:55:00.834Z,13.07
2023-02-17T11:58:01.981Z,12.93
2023-02-17T12:00:54.374Z,12.70
2023-02-17T12:03:48.222Z,13.03
2023-02-17T12:06:24.093Z,10.83
2023-02-17T12:09:20.475Z,11.20
2023-02-17T12:12:01.513Z,10.90
2023-02-17T12:15:03.227Z,11.30
2023-02-17T12:17:42.242Z,10.33
2023-02-17T12:20:31.666Z,9.90
2023-02-17T12:23:09.389Z,9.57
2023-02-17T12:25:49.770Z,9.73
2023-02-17T12:28:54.090Z,9.67
2023-02-17T12:31:41.995Z,10.30
2023-02-17T12:34:43.832Z,9.33
2023-02-17T12:37:21.447Z,9.57
2023-02-17T12:40:03.355Z,9.23
2023-02-17T12:42:41.191Z,9.67
2023-02-17T12:45:39.433Z,9.07
2023-02-17T12:48:14.831Z,9.90
2023-02-17T12:50:56.558Z,9.67
2023-02-17T12:53:42.081Z,9.20
2023-02-17T12:56:33.616Z,9.93
2023-02-17T12:59:12.664Z,9.70
2023-02-17T13:01:48.947Z,9.20
2023-02-17T13:04:18.313Z,10.50
2023-02-17T13:06:53.140Z,9.27
2023-02-17T13:09:34.498Z,9.97
2023-02-17T13:12:27.305Z,9.77
2023-02-17T13:14:55.224Z,10.47
2023-02-17T13:17:37.728Z,10.30
2023-02-17T13:20:07.384Z,10.60
2023-02-17T13:22:34.605Z,9.73
2023-02-17T13:25:02.603Z,11.17
2023-02-17T13:27:29.042Z,11.90
2023-02-17T13:30:21.729Z,12.33
2023-02-17T13:33:00.284Z,11.60
2023-02-17T13:35:27.883Z,11.90
2023-02-17T13:37:55.012Z,12.23
2023-02-17T13:40:24.604Z,11.40
2023-02-17T13:42:54.018Z,11.93
2023-02-17T13:45:27.431Z,12.27
2023-02-17T13:47:59.258Z,12.33
2023-02-17T13:50:35.993Z,13.70
2023-02-17T13:53:21.016Z,12.43
2023-02-17T13:55:47.796Z,12.83
2023-02-17T13:58:14.292Z,13.57
2023-02-17T14:00:43.378Z,13.10
2023-02-17T14:03:41.565Z,12.77
2023-02-17T14:06:13.827Z,12.07
2023-02-17T14:08:42.921Z,13.33
2023-02-17T14:11:18.207Z,13.90
2023-02-17T14:13:47.703Z,13.97
2023-02-17T14:16:31.376Z,13.23
2023-02-17T14:19:18.216Z,13.20
2023-02-17T14:22:02.518Z,13.23
2023-02-17T14:24:37.329Z,13.43
2023-02-17T14:27:09.164Z,11.83
2023-02-17T14:29:44.858Z,11.87
2023-02-17T14:32:50.076Z,10.67
2023-02-17T14:35:23.469Z,10.07
2023-02-17T14:37:52.954Z,9.37
2023-02-17T14:40:24.777Z,8.93
2023-02-17T14:42:51.878Z,8.73
2023-02-17T14:45:19.442Z,9.97
2023-02-17T14:47:46.434Z,8.87
2023-02-17T14:50:13.456Z,8.77
2023-02-17T14:52:49.290Z,7.70
2023-02-17T14:55:38.901Z,7.83
2023-02-17T14:58:05.857Z,7.27
2023-02-17T15:00:32.251Z,6.90
2023-02-17T15:03:00.450Z,6.60
2023-02-17T15:05:28.144Z,6.60
2023-02-17T15:07:54.588Z,5.73
2023-02-17T15:10:26.737Z,6.87
2023-02-17T15:12:54.317Z,6.57
2023-02-17T15:15:21.923Z,6.47
2023-02-17T15:17:48.572Z,6.57
2023-02-17T15:20:16.518Z,6.37
2023-02-17T15:22:44.304Z,6.13
2023-02-17T15:25:17.346Z,6.43
2023-02-17T15:27:44.089Z,6.60
2023-02-17T15:30:13.736Z,6.87
2023-02-17T15:32:41.017Z,6.27
2023-02-17T15:35:17.849Z,7.10
2023-02-17T15:37:44.457Z,6.30
2023-02-17T15:40:19.190Z,7.10
2023-02-17T15:42:50.199Z,6.67
2023-02-17T15:45:19.152Z,7.23
2023-02-17T15:47:50.527Z,6.23
2023-02-17T15:50:23.027Z,6.63
2023-02-17T15:52:50.618Z,7.10
2023-02-17T15:55:21.401Z,7.03
2023-02-17T15:57:50.954Z,7.60
2023-02-17T16:00:21.649Z,7.57
2023-02-17T16:02:48.120Z,6.70
2023-02-17T16:05:16.647Z,7.40
2023-02-17T16:07:43.652Z,6.83
2023-02-17T16:10:13.667Z,8.07
2023-02-17T16:12:40.228Z,7.30
2023-02-17T16:15:13.070Z,7.10
2023-02-17T16:17:39.665Z,7.83
2023-02-17T16:20:13.415Z,7.27
2023-02-17T16:22:39.930Z,8.43
2023-02-17T16:25:06.608Z,7.43
2023-02-17T16:27:33.159Z,8.50
2023-02-17T16:30:00.926Z,8.57
2023-02-17T16:32:27.519Z,8.23
2023-02-17T16:34:54.165Z,8.73
2023-02-17T16:37:20.631Z,9.40
2023-02-17T16:39:47.068Z,8.77
2023-02-17T16:42:15.448Z,8.40
2023-02-17T16:44:42.274Z,7.87
2023-02-17T16:47:18.501Z,9.00
2023-02-17T16:49:47.479Z,8.80
2023-02-17T16:52:24.300Z,9.67
2023-02-17T16:54:51.291Z,8.03
2023-02-17T16:57:19.574Z,8.30
2023-02-17T16:59:47.069Z,8.37
2023-02-17T17:02:13.883Z,8.00
2023-02-17T17:04:40.317Z,7.40
2023-02-17T17:07:07.824Z,7.87
2023-02-17T17:09:34.778Z,8.80
2023-02-17T17:12:01.348Z,8.30
2023-02-17T17:14:27.725Z,8.50
2023-02-17T17:17:01.499Z,8.47
2023-02-17T17:19:28.000Z,8.30
2023-02-17T17:21:54.499Z,7.40
2023-02-17T17:24:21.781Z,7.83
2023-02-17T17:26:50.364Z,7.87
2023-02-17T17:29:18.802Z,7.50
2023-02-17T17:31:45.568Z,6.60
2023-02-17T17:34:12.198Z,7.83
2023-02-17T17:36:43.948Z,8.00
2023-02-17T17:39:22.741Z,8.03
2023-02-17T17:41:50.581Z,8.23
2023-02-17T17:44:17.233Z,8.13
2023-02-17T17:46:44.132Z,7.73
2023-02-17T17:49:13.575Z,7.50
2023-02-17T17:51:40.844Z,9.03
2023-02-17T17:54:07.875Z,8.23
2023-02-17T17:56:37.625Z,7.30
2023-02-17T17:59:05.192Z,5.50
2023-02-17T18:01:32.022Z,4.73
2023-02-17T18:04:00.134Z,5.00
2023-02-17T18:06:43.027Z,3.97
2023-02-17T18:09:30.643Z,3.60
2023-02-17T18:12:01.348Z,3.00
2023-02-17T18:14:28.506Z,3.30
2023-02-17T18:16:54.885Z,2.93
2023-02-17T18:19:22.443Z,2.40
2023-02-17T18:21:49.518Z,2.40
2023-02-17T18:24:15.929Z,2.83
2023-02-17T18:26:42.442Z,2.47
2023-02-17T18:29:08.920Z,2.50
2023-02-17T18:31:36.217Z,2.13
2023-02-17T18:34:03.817Z,2.63
2023-02-17T18:36:30.772Z,2.30
2023-02-17T18:38:57.189Z,2.23
2023-02-17T18:41:32.124Z,2.40
2023-02-17T18:43:59.992Z,2.43
2023-02-17T18:46:29.051Z,2.50
2023-02-17T18:48:56.302Z,2.37
2023-02-17T18:51:24.311Z,2.53
2023-02-17T18:53:51.420Z,2.57
2023-02-17T18:56:20.997Z,2.40
2023-02-17T18:58:49.658Z,2.27
2023-02-17T19:01:20.635Z,1.83
2023-02-17T19:03:47.276Z,2.00
2023-02-17T19:06:17.540Z,2.47
2023-02-17T19:08:44.758Z,2.87
2023-02-17T19:11:11.758Z,2.30
2023-02-17T19:13:38.516Z,2.00
2023-02-17T19:16:16.698Z,2.07
2023-02-17T19:18:44.123Z,2.20
2023-02-17T19:21:10.955Z,2.60
2023-02-17T19:23:38.105Z,2.50
2023-02-17T19:26:07.067Z,2.50
2023-02-17T19:28:34.845Z,2.63
2023-02-17T19:31:04.079Z,2.30
2023-02-17T19:33:30.547Z,2.60
2023-02-17T19:35:57.128Z,2.60
2023-02-17T19:38:23.707Z,2.90
2023-02-17T19:40:50.540Z,2.50
2023-02-17T19:43:17.095Z,2.50
2023-02-17T19:45:46.405Z,2.23
2023-02-17T19:48:12.877Z,2.13
2023-02-17T19:50:39.268Z,2.50
2023-02-17T19:53:05.685Z,1.90
2023-02-17T19:55:32.108Z,1.80
2023-02-17T19:57:58.624Z,2.77
2023-02-17T20:00:25.091Z,3.80
2023-02-17T20:02:51.740Z,2.93
2023-02-17T20:05:18.306Z,2.30
2023-02-17T20:07:45.689Z,2.67
2023-02-17T20:10:12.510Z,2.10
2023-02-17T20:12:38.964Z,2.27
2023-02-17T20:15:06.440Z,1.90
2023-02-17T20:17:32.960Z,2.10
2023-02-17T20:19:59.606Z,2.73
2023-02-17T20:22:26.242Z,2.00
2023-02-17T20:24:52.969Z,2.70
2023-02-17T20:27:19.455Z,2.60
2023-02-17T20:29:45.887Z,2.00
2023-02-17T20:32:12.462Z,2.10
2023-02-17T20:34:39.488Z,2.40
2023-02-17T20:37:06.740Z,2.00
2023-02-17T20:39:35.364Z,2.17
2023-02-17T20:42:02.873Z,2.00
2023-02-17T20:44:29.318Z,2.13
2023-02-17T20:46:56.963Z,1.93
2023-02-17T20:49:23.839Z,2.53
2023-02-17T20:51:51.159Z,2.40
2023-02-17T20:54:18.058Z,2.43
2023-02-17T20:56:46.518Z,2.43
2023-02-17T20:59:13.727Z,2.10
2023-02-17T21:01:41.611Z,2.60
2023-02-17T21:04:08.923Z,2.53
2023-02-17T21:06:41.238Z,2.43
2023-02-17T21:09:13.534Z,2.80
2023-02-17T21:11:40.698Z,2.17
2023-02-17T21:14:07.518Z,2.27
2023-02-17T21:16:34.068Z,2.20
2023-02-17T21:19:00.867Z,2.70
2023-02-17T21:21:28.151Z,2.20
2023-02-17T21:23:55.912Z,2.47
2023-02-17T21:26:23.004Z,1.90
2023-02-17T21:28:49.812Z,2.53
2023-02-17T21:31:17.233Z,3.43
2023-02-17T21:33:44.180Z,2.27
2023-02-17T21:36:12.917Z,2.17
2023-02-17T21:38:40.025Z,2.20
2023-02-17T21:41:11.445Z,2.40
2023-02-17T21:43:57.982Z,2.43
2023-02-17T21:46:25.209Z,1.90
2023-02-17T21:48:53.307Z,2.27
2023-02-17T21:51:20.551Z,2.00
2023-02-17T21:53:47.315Z,2.60
2023-02-17T21:56:14.680Z,1.93
2023-02-17T21:58:45.888Z,2.43
2023-02-17T22:01:12.721Z,2.13
2023-02-17T22:03:39.316Z,2.10
2023-02-17T22:06:14.143Z,1.93
2023-02-17T22:08:40.609Z,2.30
2023-02-17T22:11:13.613Z,2.63
2023-02-17T22:13:40.018Z,2.10
2023-02-17T22:16:07.362Z,2.10
2023-02-17T22:18:33.995Z,2.33
2023-02-17T22:21:00.374Z,2.10
2023-02-17T22:23:27.359Z,2.10
2023-02-17T22:25:53.854Z,2.50
2023-02-17T22:28:22.004Z,2.20
2023-02-17T22:30:52.972Z,2.17
2023-02-17T22:33:19.482Z,1.60
2023-02-17T22:35:45.903Z,2.30
2023-02-17T22:38:12.481Z,2.43
2023-02-17T22:40:40.829Z,1.83
2023-02-17T22:43:07.303Z,1.97
2023-02-17T22:45:33.787Z,2.03
2023-02-17T22:48:00.227Z,1.80
2023-02-17T22:50:26.641Z,2.33
2023-02-17T22:52:53.193Z,1.90
2023-02-17T22:55:19.668Z,1.87
2023-02-17T22:57:47.278Z,2.00
2023-02-17T23:00:14.544Z,2.17
2023-02-17T23:02:40.916Z,1.70
2023-02-17T23:05:07.504Z,2.00
2023-02-17T23:07:33.908Z,1.70
2023-02-17T23:10:03.644Z,1.83
2023-02-17T23:12:30.316Z,2.00
2023-02-17T23:14:56.753Z,2.23
2023-02-17T23:17:24.822Z,2.37
2023-02-17T23:19:51.302Z,1.83
2023-02-17T23:22:18.996Z,2.23
2023-02-17T23:24:47.494Z,2.47
2023-02-17T23:27:14.577Z,1.80
2023-02-17T23:29:41.837Z,2.03
2023-02-17T23:32:08.485Z,1.90
2023-02-17T23:34:34.929Z,2.47
2023-02-17T23:37:01.718Z,2.33
2023-02-17T23:39:28.118Z,2.10
2023-02-17T23:41:54.567Z,2.27
2023-02-17T23:44:21.057Z,2.67
2023-02-17T23:46:47.605Z,1.70
2023-02-17T23:49:16.149Z,1.87
2023-02-17T23:51:42.937Z,2.30
2023-02-17T23:54:09.442Z,2.53
2023-02-17T23:56:37.011Z,1.70
2023-02-17T23:59:03.769Z,2.37
